Metar Cercanos

 

LEPA - Palma De Mallorc, Spain
Distance from station: ONO 38km
Actualización: Sat, 28-May-2022 3:30am CEST
Despejado
Despejado
 Viento del varies
Viento: varies 2 km/h
Temperatura: 15°C
Rocío: 13°C
Humedad: 88%
Barómetro: 1015 hPa
Resumen: Despejado
Visibility: greater than 10 km
2022/05/28 01:30 LEPA 280130Z VRB01KT CAVOK 15/13 Q1015 NOSIG
LEMH - Mahon/Menorca Is, Spain
Distance from station: ENE 105km
Actualización: Sat, 28-May-2022 3:30am CEST
Despejado
Despejado
 Viento del NNO
Viento: NNO 31 km/h, Racha: 52 km/h
Temperatura: 21°C
Rocío: 13°C
Humedad: 60%
Barómetro: 1014 hPa
Resumen: Despejado
Visibility: greater than 10 km
2022/05/28 01:30 LEMH 280130Z AUTO 34017G28KT 310V020 CAVOK 21/13 Q1014
 
LEIB - Ibiza/Es Codola, Spain
Distance from station: OSO 165km
Actualización: Sat, 28-May-2022 3:30am CEST
Despejado
Despejado
 Viento del OSO
Viento: OSO 6 km/h
Temperatura: 17°C
Rocío: 13°C
Humedad: 77%
Barómetro: 1017 hPa
Resumen: Despejado
Visibility: greater than 10 km
2022/05/28 01:30 LEIB 280130Z 25003KT 210V290 CAVOK 17/13 Q1017 NOSIG
LEBL - Barcelona Airpor, Spain
Distance from station: NNO 225km
Actualización: Sat, 28-May-2022 3:30am CEST
Despejado
Despejado
 Viento del NO
Viento: NO 11 km/h
Temperatura: 20°C
Rocío: 14°C
Humedad: 69%
Barómetro: 1015 hPa
Resumen: Despejado
Visibility: greater than 10 km
2022/05/28 01:30 LEBL 280130Z 31006KT CAVOK 20/14 Q1015 NOSIG
 
LEVC - Valencia (civ/Mi, Spain
Distance from station: NO 188km
Actualización: Sat, 28-May-2022 3:30am CEST
Despejado
Despejado
 Viento del OSO
Viento: OSO 9 km/h
Temperatura: 17°C
Rocío: 12°C
Humedad: 73%
Barómetro: 1017 hPa
Resumen: Despejado
Visibility: greater than 10 km
2022/05/28 01:30 LEVC 280130Z 24005KT CAVOK 17/12 Q1017 NOSIG
LEGE - Gerona/Costa Bra, Spain
Distance from station: N 276km
Actualización: Sat, 28-May-2022 3:30am CEST
Despejado
Despejado
 Viento del calm
Viento: Calma
Temperatura: 13°C
Rocío: 11°C
Humedad: 88%
Barómetro: 1015 hPa
Resumen: Despejado
Visibility: greater than 10 km
2022/05/28 01:30 LEGE 280130Z 00000KT CAVOK 13/11 Q1015
 
LEAL - Alicante/El Alte, Spain
Distance from station: OSO 344km
Actualización: Sat, 28-May-2022 3:30am CEST
Despejado
Despejado
 Viento del OSO
Viento: OSO 4 km/h
Temperatura: 17°C
Rocío: 15°C
Humedad: 88%
Barómetro: 1017 hPa
Resumen: Despejado
Visibility: greater than 10 km
2022/05/28 01:30 LEAL 280130Z 25002KT CAVOK 17/15 Q1017 NOSIG
LEAM - Almeria Airport, Spain
Distance from station: SSO 56km
Actualización: Sat, 28-May-2022 3:30am CEST
Despejado
Despejado
 Viento del NE
Viento: NE 4 km/h
Temperatura: 19°C
Rocío: 9°C
Humedad: 52%
Barómetro: 1017 hPa
Resumen: Despejado
Visibility: greater than 10 km
2022/05/28 01:30 LEAM 280130Z AUTO 04002KT CAVOK 19/09 Q1017
 
LEZG - Zaragoza (mil/Ci, Spain
Distance from station: NO 431km
Actualización: Sat, 28-May-2022 3:30am CEST
Despejado
Despejado
 Viento del O
Viento: O 22 km/h
Temperatura: 18°C
Rocío: 11°C
Humedad: 64%
Barómetro: 1019 hPa
Resumen: Despejado
Visibility: greater than 10 km
2022/05/28 01:30 LEZG 280130Z 28012KT CAVOK 18/11 Q1019
LEMD - Madrid/Barajas, Spain
Distance from station: ONO 234km
Actualización: Sat, 28-May-2022 3:30am CEST
Despejado
Despejado
 Viento del NNO
Viento: NNO 2 km/h
Temperatura: 17°C
Rocío: 6°C
Humedad: 49%
Barómetro: 1018 hPa
Resumen: Despejado
Visibility: greater than 10 km
2022/05/28 01:30 LEMD 280130Z 34001KT CAVOK 17/06 Q1018 NOSIG
 
LEGR - Granada Airport, Spain
Distance from station: OSO 62km
Actualización: Sat, 28-May-2022 3:30am CEST
Despejado
Despejado
 Viento del calm
Viento: Calma
Temperatura: 16°C
Rocío: 5°C
Humedad: 48%
Barómetro: 1019 hPa
Resumen: Despejado
Visibility: greater than 10 km
2022/05/28 01:30 LEGR 280130Z AUTO 00000KT CAVOK 16/05 Q1019
LEMG - Malaga (civ/Mil), Spain
Distance from station: OSO 227km
Actualización: Sat, 28-May-2022 3:30am CEST
Despejado
Despejado
 Viento del ONO
Viento: ONO 17 km/h
Temperatura: 17°C
Rocío: 7°C
Humedad: 52%
Barómetro: 1017 hPa
Resumen: Despejado
Visibility: greater than 10 km
2022/05/28 01:30 LEMG 280130Z 29009KT CAVOK 17/07 Q1017 NOSIG
 
LEZL - Sevilla (civ/Mil, Spain
Distance from station: S 318km
Actualización: Sat, 28-May-2022 3:30am CEST
Despejado
Despejado
 Viento del ENE
Viento: ENE 2 km/h
Temperatura: 18°C
Rocío: 11°C
Humedad: 64%
Barómetro: 1015 hPa
Resumen: Despejado
Visibility: greater than 10 km
2022/05/28 01:30 LEZL 280130Z AUTO 07001KT CAVOK 18/11 Q1015
LEVT - Vitoria, Spain
Distance from station: NO 226km
Actualización: Sat, 28-May-2022 3:30am CEST
Cubierto
Cubierto
 Viento del NNE
Viento: NNE 15 km/h
Temperatura: 13°C
Rocío: 12°C
Humedad: 94%
Barómetro: 1022 hPa
Clouds: Cubierto
Visibility: 10 km
Cloud details: Cubierto 671 m
2022/05/28 01:30 LEVT 280130Z 02008KT 340V050 9999 OVC022 13/12 Q1022
 
LEBB - Bilbao/Sondica, Spain
Distance from station: NNO 235km
Actualización: Sat, 28-May-2022 3:30am CEST
Muy nuboso
Muy nuboso
 Viento del varies
Viento: varies 2 km/h
Temperatura: 14°C
Rocío: 13°C
Humedad: 94%
Barómetro: 1022 hPa
Clouds: Muy nuboso
Visibility: 10 km
Cloud details: Muy nuboso 640 m
2022/05/28 01:30 LEBB 280130Z VRB01KT 9999 BKN021 14/13 Q1022 NOSIG
LESO - San Sebastian/Fu, Spain
Distance from station: N 231km
Actualización: Sat, 28-May-2022 3:30am CEST
Cubierto
Cubierto
 Viento del S
Viento: S 6 km/h
Temperatura: 16°C
Rocío: 15°C
Humedad: 94%
Barómetro: 1022 hPa
Clouds: Cubierto
Visibility: 10 km
Cloud details: Cubierto 549 m
2022/05/28 01:30 LESO 280130Z AUTO 18003KT 9999 OVC018 16/15 Q1022
 
LEVD - Valladolid(Mil/C, Spain
Distance from station: ONO 239km
Actualización: Sat, 28-May-2022 3:30am CEST
Despejado
Despejado
 Viento del ENE
Viento: ENE 17 km/h
Temperatura: 12°C
Rocío: 8°C
Humedad: 77%
Barómetro: 1019 hPa
Resumen: Despejado
Visibility: greater than 10 km
2022/05/28 01:30 LEVD 280130Z AUTO 06009KT CAVOK 12/08 Q1019
LESA - Salamanca (civ/M, Spain
Distance from station: ONO 349km
Actualización: Sat, 28-May-2022 3:30am CEST
Despejado
Despejado
 Viento del calm
Viento: Calma
Temperatura: 13°C
Rocío: 6°C
Humedad: 63%
Barómetro: 1019 hPa
Clouds: Despejado
Visibility: 7 km
2022/05/28 01:30 LESA 280130Z AUTO 00000KT 7000 NCD 13/06 Q1019
 
LEXJ - Santander/Paraya, Spain
Distance from station: NNO 247km
Actualización: Sat, 28-May-2022 3:30am CEST
Despejado
Despejado
 Viento del E
Viento: E 7 km/h
Temperatura: 15°C
Rocío: 13°C
Humedad: 88%
Barómetro: 1021 hPa
Resumen: Despejado
Visibility: greater than 10 km
2022/05/28 01:30 LEXJ 280130Z AUTO 10004KT CAVOK 15/13 Q1021
LEAS - Asturias/Aviles, Spain
Distance from station: NO 214km
Actualización: Sat, 28-May-2022 3:30am CEST
Cubierto
Cubierto
 Viento del E
Viento: E 15 km/h
Temperatura: 15°C
Rocío: 14°C
Humedad: 94%
Barómetro: 1020 hPa
Clouds: Cubierto
Visibility: 10 km
Cloud details: Parcialmente nuboso 366 m
Cubierto 518 m
2022/05/28 01:30 LEAS 280130Z AUTO 09008KT 060V120 9999 SCT012 OVC017 15/14 Q1020
 
LECO - La Coruna/Alvedr, Spain
Distance from station: ONO 222km
Actualización: Sat, 28-May-2022 3:30am CEST
Despejado
Despejado
 Viento del S
Viento: S 2 km/h
Temperatura: 14°C
Rocío: 11°C
Humedad: 82%
Barómetro: 1017 hPa
Resumen: Despejado
Visibility: greater than 10 km
2022/05/28 01:30 LECO 280130Z AUTO 19001KT CAVOK 14/11 Q1017
LEVX - Vigo/Peinador, Spain
Distance from station: O 214km
Actualización: Sat, 28-May-2022 3:30am CEST
Despejado
Despejado
 Viento del varies
Viento: varies 6 km/h
Temperatura: 22°C
Rocío: 10°C
Humedad: 47%
Barómetro: 1015 hPa
Resumen: Despejado
Visibility: greater than 10 km
2022/05/28 01:30 LEVX 280130Z VRB03KT CAVOK 22/10 Q1015 NOSIG